createdAt,value
2023-09-27T00:00:15.105Z,98077.69
2023-09-27T00:02:45.243Z,98075.19
2023-09-27T00:05:18.201Z,98079.22
2023-09-27T00:07:46.815Z,98073.38
2023-09-27T00:10:16.134Z,98070.03
2023-09-27T00:12:46.515Z,98077.44
2023-09-27T00:15:15.434Z,98067.91
2023-09-27T00:17:45.258Z,98066.41
2023-09-27T00:20:17.262Z,98070.47
2023-09-27T00:22:46.401Z,98067.28
2023-09-27T00:25:15.702Z,98071.34
2023-09-27T00:27:51.172Z,98068.84
2023-09-27T00:30:19.515Z,98068.16
2023-09-27T00:32:47.982Z,98071.03
2023-09-27T00:35:20.697Z,98065.03
2023-09-27T00:37:50.103Z,98075.06
2023-09-27T00:40:19.661Z,98073.41
2023-09-27T00:42:49.768Z,98066.72
2023-09-27T00:45:22.206Z,98067.06
2023-09-27T00:47:52.822Z,98064.75
2023-09-27T00:50:22.014Z,98063.25
2023-09-27T00:52:51.295Z,98067.28
2023-09-27T00:55:22.172Z,98068.47
2023-09-27T00:57:55.379Z,98073.16
2023-09-27T01:00:24.895Z,98068.81
2023-09-27T01:02:56.982Z,98066.44
2023-09-27T01:05:25.963Z,98066.97
2023-09-27T01:07:54.461Z,98062.81
2023-09-27T01:10:28.287Z,98064.81
2023-09-27T01:12:58.467Z,98056.47
2023-09-27T01:15:27.046Z,98059.34
2023-09-27T01:17:56.320Z,98053.97
2023-09-27T01:20:24.969Z,98049.16
2023-09-27T01:22:59.320Z,98055.69
2023-09-27T01:25:30.970Z,98052.34
2023-09-27T01:28:00.377Z,98058.88
2023-09-27T01:30:34.244Z,98058.38
2023-09-27T01:33:08.709Z,98055.19
2023-09-27T01:35:38.568Z,98054.72
2023-09-27T01:38:10.492Z,98052.41
2023-09-27T01:40:41.314Z,98050.88
2023-09-27T01:43:09.978Z,98046.72
2023-09-27T01:45:38.452Z,98060.25
2023-09-27T01:48:08.164Z,98056.09
2023-09-27T01:50:38.966Z,98049.91
2023-09-27T01:53:08.693Z,98054.41
2023-09-27T01:55:37.144Z,98050.06
2023-09-27T01:58:06.361Z,98052.25
2023-09-27T02:00:35.086Z,98053.44
2023-09-27T02:03:05.057Z,98041.41
2023-09-27T02:05:33.961Z,98053.13
2023-09-27T02:08:02.412Z,98049.78
2023-09-27T02:10:32.256Z,98059.78
2023-09-27T02:13:03.644Z,98052.09
2023-09-27T02:15:32.197Z,98052.28
2023-09-27T02:18:00.651Z,98047.09
2023-09-27T02:20:31.175Z,98052.63
2023-09-27T02:22:59.748Z,98050.13
2023-09-27T02:25:28.650Z,98057.47
2023-09-27T02:27:58.391Z,98053.28
2023-09-27T02:30:26.729Z,98047.47
2023-09-27T02:32:55.047Z,98052.81
2023-09-27T02:35:23.719Z,98047.81
2023-09-27T02:37:52.098Z,98055.09
2023-09-27T02:40:23.300Z,98055.44
2023-09-27T02:42:54.566Z,98055.78
2023-09-27T02:45:24.257Z,98059.47
2023-09-27T02:47:52.589Z,98057.78
2023-09-27T02:50:21.004Z,98055.28
2023-09-27T02:52:49.368Z,98052.75
2023-09-27T02:55:18.520Z,98045.94
2023-09-27T02:57:54.266Z,98054.13
2023-09-27T03:00:26.051Z,98053.47
2023-09-27T03:02:54.407Z,98053.63
2023-09-27T03:05:22.849Z,98049.28
2023-09-27T03:07:51.230Z,98046.75
2023-09-27T03:10:19.959Z,98044.25
2023-09-27T03:12:50.456Z,98051.63
2023-09-27T03:15:18.999Z,98048.28
2023-09-27T03:17:50.382Z,98044.13
2023-09-27T03:20:20.890Z,98050.44
2023-09-27T03:22:50.648Z,98053.28
2023-09-27T03:25:19.536Z,98047.94
2023-09-27T03:27:48.926Z,98053.28
2023-09-27T03:30:19.239Z,98051.44
2023-09-27T03:32:49.243Z,98048.09
2023-09-27T03:35:18.304Z,98053.44
2023-09-27T03:37:50.003Z,98053.78
2023-09-27T03:40:18.479Z,98062.63
2023-09-27T03:42:50.075Z,98053.78
2023-09-27T03:45:21.720Z,98062.78
2023-09-27T03:47:51.618Z,98063.13
2023-09-27T03:50:20.431Z,98063.28
2023-09-27T03:52:49.284Z,98063.28
2023-09-27T03:55:19.513Z,98064.28
2023-09-27T03:57:47.878Z,98066.13
2023-09-27T04:00:18.939Z,98076.13
2023-09-27T04:02:47.772Z,98080.66
2023-09-27T04:05:20.091Z,98079.97
2023-09-27T04:07:48.546Z,98078.47
2023-09-27T04:10:20.684Z,98070.63
2023-09-27T04:12:49.690Z,98069.09
2023-09-27T04:15:18.446Z,98075.44
2023-09-27T04:17:46.889Z,98085.28
2023-09-27T04:20:20.248Z,98089.81
2023-09-27T04:22:54.102Z,98101.31
2023-09-27T04:25:22.570Z,98101.47
2023-09-27T04:27:52.356Z,98106.81
2023-09-27T04:30:26.650Z,98098.78
2023-09-27T04:32:58.004Z,98104.28
2023-09-27T04:35:27.824Z,98103.81
2023-09-27T04:37:56.223Z,98095.81
2023-09-27T04:40:24.759Z,98109.16
2023-09-27T04:42:53.045Z,98116.31
2023-09-27T04:45:21.415Z,98118.16
2023-09-27T04:47:51.076Z,98123.81
2023-09-27T04:50:19.655Z,98129.16
2023-09-27T04:52:49.440Z,98118.66
2023-09-27T04:55:17.875Z,98125.66
2023-09-27T04:57:46.531Z,98128.47
2023-09-27T05:00:21.242Z,98132.81
2023-09-27T05:02:50.443Z,98135.47
2023-09-27T05:05:19.122Z,98129.16
2023-09-27T05:07:49.349Z,98140.66
2023-09-27T05:10:18.102Z,98141.50
2023-09-27T05:12:46.454Z,98143.16
2023-09-27T05:15:14.851Z,98153.03
2023-09-27T05:17:43.202Z,98150.34
2023-09-27T05:20:18.169Z,98153.03
2023-09-27T05:22:47.949Z,98147.69
2023-09-27T05:25:16.349Z,98147.53
2023-09-27T05:27:44.687Z,98143.84
2023-09-27T05:30:13.725Z,98150.69
2023-09-27T05:32:44.288Z,98150.53
2023-09-27T05:35:15.728Z,98146.84
2023-09-27T05:37:44.410Z,98151.06
2023-09-27T05:40:17.585Z,98154.38
2023-09-27T05:42:45.942Z,98160.41
2023-09-27T05:45:14.784Z,98159.22
2023-09-27T05:47:43.752Z,98158.25
2023-09-27T05:50:17.992Z,98156.22
2023-09-27T05:52:47.939Z,98140.22
2023-09-27T05:55:17.800Z,98149.06
2023-09-27T05:57:46.569Z,98141.75
2023-09-27T06:00:23.555Z,98147.06
2023-09-27T06:02:52.320Z,98147.06
2023-09-27T06:05:21.700Z,98152.25
2023-09-27T06:07:50.391Z,98149.44
2023-09-27T06:10:20.557Z,98153.59
2023-09-27T06:12:54.798Z,98154.13
2023-09-27T06:15:23.389Z,98159.28
2023-09-27T06:17:51.784Z,98153.47
2023-09-27T06:20:23.851Z,98152.28
2023-09-27T06:22:54.652Z,98150.47
2023-09-27T06:25:30.230Z,98145.75
2023-09-27T06:27:58.720Z,98152.63
2023-09-27T06:30:27.096Z,98158.31
2023-09-27T06:32:55.782Z,98162.47
2023-09-27T06:35:24.284Z,98165.66
2023-09-27T06:38:01.570Z,98181.53
2023-09-27T06:40:31.499Z,98186.38
2023-09-27T06:43:00.635Z,98189.72
2023-09-27T06:45:29.924Z,98190.09
2023-09-27T06:48:00.056Z,98195.09
2023-09-27T06:50:28.740Z,98185.78
2023-09-27T06:53:19.834Z,98190.78
2023-09-27T06:55:54.809Z,98191.09
2023-09-27T06:58:26.157Z,98185.09
2023-09-27T07:00:56.036Z,98189.28
2023-09-27T07:03:26.845Z,98184.94
2023-09-27T07:05:55.770Z,98192.13
2023-09-27T07:08:24.281Z,98197.28
2023-09-27T07:10:54.124Z,98198.13
2023-09-27T07:13:26.301Z,98202.13
2023-09-27T07:15:55.614Z,98206.28
2023-09-27T07:18:27.014Z,98199.59
2023-09-27T07:20:55.592Z,98210.78
2023-09-27T07:23:31.169Z,98195.19
2023-09-27T07:26:01.082Z,98192.13
2023-09-27T07:28:32.486Z,98194.94
2023-09-27T07:31:01.049Z,98188.81
2023-09-27T07:33:38.150Z,98193.44
2023-09-27T07:36:09.850Z,98190.34
2023-09-27T07:38:43.916Z,98180.53
2023-09-27T07:41:13.626Z,98188.28
2023-09-27T07:43:42.971Z,98189.47
2023-09-27T07:46:13.607Z,98188.81
2023-09-27T07:48:43.738Z,98189.94
2023-09-27T07:51:15.336Z,98185.72
2023-09-27T07:53:46.371Z,98188.88
2023-09-27T07:56:22.715Z,98178.44
2023-09-27T07:58:53.843Z,98175.97
2023-09-27T08:01:23.088Z,98175.19
2023-09-27T08:03:54.995Z,98176.22
2023-09-27T08:06:24.431Z,98179.34
2023-09-27T08:08:55.807Z,98177.03
2023-09-27T08:11:25.626Z,98181.13
2023-09-27T08:13:54.920Z,98181.47
2023-09-27T08:16:23.359Z,98185.59
2023-09-27T08:18:51.991Z,98189.63
2023-09-27T08:21:20.551Z,98193.69
2023-09-27T08:23:54.021Z,98194.19
2023-09-27T08:26:22.983Z,98195.72
2023-09-27T08:28:53.227Z,98204.94
2023-09-27T08:31:21.760Z,98197.72
2023-09-27T08:33:50.107Z,98198.81
2023-09-27T08:36:18.376Z,98191.38
2023-09-27T08:38:46.708Z,98196.59
2023-09-27T08:41:16.548Z,98198.34
2023-09-27T08:43:48.745Z,98194.81
2023-09-27T08:46:29.369Z,98190.03
2023-09-27T08:48:59.198Z,98189.84
2023-09-27T08:51:28.445Z,98187.72
2023-09-27T08:53:56.882Z,98184.44
2023-09-27T08:56:30.702Z,98185.44
2023-09-27T08:58:59.956Z,98179.34
2023-09-27T09:01:29.666Z,98175.16
2023-09-27T09:04:01.128Z,98180.09
2023-09-27T09:06:30.601Z,98172.31
2023-09-27T09:09:01.487Z,98176.97
2023-09-27T09:11:30.164Z,98183.59
2023-09-27T09:14:04.874Z,98177.22
2023-09-27T09:16:41.430Z,98183.78
2023-09-27T09:19:41.099Z,98180.53
2023-09-27T09:22:14.537Z,98172.06
2023-09-27T09:24:45.005Z,98179.44
2023-09-27T09:27:17.256Z,98174.00
2023-09-27T09:29:50.685Z,98175.09
2023-09-27T09:32:24.424Z,98170.16
2023-09-27T09:34:56.451Z,98168.22
2023-09-27T09:37:28.184Z,98165.38
2023-09-27T09:40:14.273Z,98159.91
2023-09-27T09:42:44.228Z,98156.56
2023-09-27T09:45:13.732Z,98162.38
2023-09-27T09:47:45.902Z,98161.56
2023-09-27T09:50:18.069Z,98158.16
2023-09-27T09:52:57.032Z,98152.66
2023-09-27T09:55:48.887Z,98145.47
2023-09-27T09:58:27.893Z,98143.91
2023-09-27T10:01:03.594Z,98153.28
2023-09-27T10:03:35.445Z,98138.59
2023-09-27T10:06:06.567Z,98141.84
2023-09-27T10:08:41.234Z,98141.84
2023-09-27T10:11:13.544Z,98137.00
2023-09-27T10:13:45.818Z,98139.41
2023-09-27T10:16:16.024Z,98133.31
2023-09-27T10:18:45.943Z,98134.34
2023-09-27T10:21:15.926Z,98133.81
2023-09-27T10:24:02.975Z,98132.66
2023-09-27T10:26:38.778Z,98131.28
2023-09-27T10:29:13.728Z,98129.56
2023-09-27T10:32:21.920Z,98122.63
2023-09-27T10:34:54.077Z,98124.66
2023-09-27T10:37:59.859Z,98122.09
2023-09-27T10:40:43.376Z,98116.25
2023-09-27T10:43:14.578Z,98107.06
2023-09-27T10:45:43.938Z,98107.44
2023-09-27T10:48:20.641Z,98101.56
2023-09-27T10:50:56.035Z,98095.91
2023-09-27T10:53:24.399Z,98089.41
2023-09-27T10:55:52.889Z,98088.09
2023-09-27T10:58:24.180Z,98090.09
2023-09-27T11:00:58.202Z,98084.94
2023-09-27T11:03:26.894Z,98075.47
2023-09-27T11:05:56.666Z,98075.28
2023-09-27T11:08:33.092Z,98075.09
2023-09-27T11:11:02.160Z,98073.00
2023-09-27T11:13:30.925Z,98070.63
2023-09-27T11:16:10.166Z,98061.13
2023-09-27T11:18:47.648Z,98070.72
2023-09-27T11:21:18.547Z,98064.72
2023-09-27T11:23:57.701Z,98063.88
2023-09-27T11:26:28.040Z,98063.88
2023-09-27T11:29:01.206Z,98054.03
2023-09-27T11:31:32.925Z,98054.09
2023-09-27T11:34:16.220Z,98050.31
2023-09-27T11:36:48.482Z,98042.91
2023-09-27T11:39:30.924Z,98040.75
2023-09-27T11:42:00.948Z,98046.78
2023-09-27T11:44:33.065Z,98033.41
2023-09-27T11:47:10.084Z,98031.72
2023-09-27T11:49:51.949Z,98024.88
2023-09-27T11:52:21.654Z,98021.78
2023-09-27T11:54:49.946Z,98010.88
2023-09-27T11:57:18.210Z,98013.13
2023-09-27T11:59:49.596Z,98005.81
2023-09-27T12:02:28.312Z,97994.09
2023-09-27T12:05:02.057Z,97993.06
2023-09-27T12:07:32.107Z,97992.81
2023-09-27T12:10:00.699Z,97993.72
2023-09-27T12:12:29.713Z,97984.94
2023-09-27T12:14:58.127Z,97979.78
2023-09-27T12:17:26.497Z,97983.06
2023-09-27T12:20:00.553Z,97983.63
2023-09-27T12:22:30.377Z,97985.25
2023-09-27T12:25:02.395Z,97987.16
2023-09-27T12:27:30.689Z,97976.78
2023-09-27T12:30:07.434Z,97970.22
2023-09-27T12:32:35.958Z,97965.56
2023-09-27T12:35:04.849Z,97962.53
2023-09-27T12:37:36.595Z,97955.97
2023-09-27T12:40:13.721Z,97952.72
2023-09-27T12:42:42.122Z,97946.94
2023-09-27T12:45:12.603Z,97936.25
2023-09-27T12:47:42.898Z,97935.69
2023-09-27T12:50:14.512Z,97920.69
2023-09-27T12:52:45.527Z,97921.50
2023-09-27T12:55:15.595Z,97904.84
2023-09-27T12:57:44.009Z,97905.41
2023-09-27T13:00:25.414Z,97900.53
2023-09-27T13:02:56.628Z,97898.03
2023-09-27T13:05:25.464Z,97898.31
2023-09-27T13:07:59.449Z,97896.91
2023-09-27T13:10:29.262Z,97885.97
2023-09-27T13:12:57.644Z,97887.28
2023-09-27T13:15:25.919Z,97884.81
2023-09-27T13:17:57.876Z,97886.75
2023-09-27T13:20:26.228Z,97886.75
2023-09-27T13:22:54.591Z,97882.41
2023-09-27T13:25:23.205Z,97881.88
2023-09-27T13:27:55.893Z,97878.88
2023-09-27T13:30:35.334Z,97876.19
2023-09-27T13:33:05.311Z,97868.25
2023-09-27T13:35:36.706Z,97864.09
2023-09-27T13:38:07.610Z,97855.59
2023-09-27T13:40:36.339Z,97852.03
2023-09-27T13:43:16.025Z,97856.13
2023-09-27T13:45:47.416Z,97858.84
2023-09-27T13:48:16.796Z,97849.03
2023-09-27T13:50:45.318Z,97842.72
2023-09-27T13:53:30.928Z,97854.19
2023-09-27T13:55:59.362Z,97850.34
2023-09-27T13:58:29.184Z,97844.31
2023-09-27T14:00:57.550Z,97843.75
2023-09-27T14:03:32.142Z,97844.75
2023-09-27T14:06:00.541Z,97841.47
2023-09-27T14:08:29.456Z,97840.09
2023-09-27T14:10:58.201Z,97838.72
2023-09-27T14:13:27.889Z,97835.97
2023-09-27T14:15:56.183Z,97837.81
2023-09-27T14:18:27.471Z,97836.69
2023-09-27T14:20:55.950Z,97832.81
2023-09-27T14:23:27.700Z,97830.53
2023-09-27T14:25:56.100Z,97828.31
2023-09-27T14:28:25.422Z,97824.66
2023-09-27T14:30:55.219Z,97815.06
2023-09-27T14:33:28.393Z,97811.72
2023-09-27T14:35:57.703Z,97807.28
2023-09-27T14:38:27.377Z,97803.63
2023-09-27T14:40:55.732Z,97796.50
2023-09-27T14:43:26.676Z,97801.34
2023-09-27T14:45:59.518Z,97788.97
2023-09-27T14:48:27.956Z,97781.25
2023-09-27T14:50:56.248Z,97778.72
2023-09-27T14:53:27.475Z,97790.06
2023-09-27T14:55:58.953Z,97792.19
2023-09-27T14:58:27.751Z,97788.53
2023-09-27T15:00:57.515Z,97786.50
2023-09-27T15:03:29.512Z,97775.19
2023-09-27T15:06:02.115Z,97773.19
2023-09-27T15:08:31.419Z,97768.16
2023-09-27T15:10:59.911Z,97771.56
2023-09-27T15:13:37.616Z,97771.19
2023-09-27T15:16:07.362Z,97759.91
2023-09-27T15:18:35.691Z,97759.50
2023-09-27T15:21:04.020Z,97752.00
2023-09-27T15:23:32.330Z,97747.81
2023-09-27T15:26:00.948Z,97751.53
2023-09-27T15:28:35.093Z,97747.06
2023-09-27T15:31:04.250Z,97746.44
2023-09-27T15:33:34.165Z,97739.50
2023-09-27T15:36:06.159Z,97748.66
2023-09-27T15:38:34.875Z,97746.91
2023-09-27T15:41:05.321Z,97742.44
2023-09-27T15:43:33.798Z,97744.28
2023-09-27T15:46:04.751Z,97751.50
2023-09-27T15:48:37.335Z,97745.16
2023-09-27T15:51:12.850Z,97738.47
2023-09-27T15:53:42.359Z,97740.88
2023-09-27T15:56:11.899Z,97738.31
2023-09-27T15:58:40.674Z,97735.50
2023-09-27T16:01:09.520Z,97734.19
2023-09-27T16:03:42.160Z,97732.72
2023-09-27T16:06:10.605Z,97735.84
2023-09-27T16:08:39.012Z,97743.06
2023-09-27T16:11:07.333Z,97741.31
2023-09-27T16:13:35.779Z,97736.88
2023-09-27T16:16:05.162Z,97732.63
2023-09-27T16:18:33.541Z,97733.59
2023-09-27T16:21:03.360Z,97729.94
2023-09-27T16:23:32.079Z,97730.91
2023-09-27T16:26:00.748Z,97727.47
2023-09-27T16:28:29.848Z,97727.63
2023-09-27T16:30:59.828Z,97732.09
2023-09-27T16:33:30.359Z,97724.91
2023-09-27T16:35:58.701Z,97727.78
2023-09-27T16:38:28.473Z,97726.00
2023-09-27T16:40:56.816Z,97720.69
2023-09-27T16:43:27.913Z,97721.88
2023-09-27T16:45:56.323Z,97719.88
2023-09-27T16:48:24.933Z,97723.75
2023-09-27T16:50:53.256Z,97724.13
2023-09-27T16:53:21.723Z,97724.47
2023-09-27T16:55:54.517Z,97711.47
2023-09-27T16:58:23.277Z,97711.84
2023-09-27T17:00:51.644Z,97716.81
2023-09-27T17:03:27.884Z,97711.94
2023-09-27T17:05:56.684Z,97710.59
2023-09-27T17:08:25.115Z,97717.19
2023-09-27T17:10:57.674Z,97716.09
2023-09-27T17:13:26.065Z,97718.94
2023-09-27T17:15:54.567Z,97720.31
2023-09-27T17:18:27.390Z,97719.56
2023-09-27T17:20:55.723Z,97717.19
2023-09-27T17:23:24.580Z,97715.63
2023-09-27T17:25:55.576Z,97714.88
2023-09-27T17:28:26.523Z,97714.34
2023-09-27T17:30:57.834Z,97718.41
2023-09-27T17:33:26.512Z,97714.13
2023-09-27T17:35:55.194Z,97713.41
2023-09-27T17:38:23.608Z,97706.41
2023-09-27T17:40:52.100Z,97711.09
2023-09-27T17:43:22.677Z,97707.84
2023-09-27T17:45:54.032Z,97704.34
2023-09-27T17:48:23.117Z,97707.94
2023-09-27T17:50:51.464Z,97700.97
2023-09-27T17:53:20.052Z,97699.38
2023-09-27T17:55:48.473Z,97700.25
2023-09-27T17:58:16.882Z,97696.00
2023-09-27T18:00:46.620Z,97705.00
2023-09-27T18:03:15.088Z,97699.03
2023-09-27T18:05:43.555Z,97703.91
2023-09-27T18:08:11.942Z,97701.44
2023-09-27T18:10:40.397Z,97700.66
2023-09-27T18:13:08.864Z,97714.03
2023-09-27T18:15:38.119Z,97714.06
2023-09-27T18:18:10.401Z,97717.84
2023-09-27T18:20:39.477Z,97717.69
2023-09-27T18:23:14.881Z,97714.81
2023-09-27T18:25:43.373Z,97715.91
2023-09-27T18:28:14.386Z,97714.88
2023-09-27T18:30:43.225Z,97708.50
2023-09-27T18:33:16.103Z,97713.97
2023-09-27T18:35:44.439Z,97715.41
2023-09-27T18:38:12.856Z,97721.63
2023-09-27T18:40:41.708Z,97722.28
2023-09-27T18:43:10.010Z,97717.97
2023-09-27T18:45:38.494Z,97716.97
2023-09-27T18:48:09.668Z,97726.75
2023-09-27T18:50:41.791Z,97729.69
2023-09-27T18:53:12.993Z,97736.75
2023-09-27T18:55:41.433Z,97728.09
2023-09-27T18:58:14.107Z,97733.28
2023-09-27T19:00:42.809Z,97729.78
2023-09-27T19:03:19.921Z,97727.28
2023-09-27T19:05:49.867Z,97732.47
2023-09-27T19:08:18.289Z,97737.69
2023-09-27T19:10:48.003Z,97739.34
2023-09-27T19:13:16.504Z,97741.22
2023-09-27T19:15:45.563Z,97737.50
2023-09-27T19:18:20.042Z,97741.03
2023-09-27T19:20:49.782Z,97740.22
2023-09-27T19:23:22.835Z,97744.53
2023-09-27T19:25:51.335Z,97742.28
2023-09-27T19:28:26.955Z,97746.00
2023-09-27T19:30:55.339Z,97757.44
2023-09-27T19:33:23.652Z,97747.69
2023-09-27T19:35:53.421Z,97751.97
2023-09-27T19:38:21.765Z,97745.34
2023-09-27T19:40:50.163Z,97750.31
2023-09-27T19:43:20.310Z,97747.63
2023-09-27T19:45:48.722Z,97744.72
2023-09-27T19:48:17.250Z,97746.38
2023-09-27T19:50:46.186Z,97738.28
2023-09-27T19:53:21.739Z,97744.28
2023-09-27T19:55:50.154Z,97744.06
2023-09-27T19:58:19.382Z,97738.66
2023-09-27T20:00:47.931Z,97738.44
2023-09-27T20:03:16.369Z,97744.44
2023-09-27T20:05:44.749Z,97738.84
2023-09-27T20:08:17.697Z,97744.00
2023-09-27T20:10:46.081Z,97737.53
2023-09-27T20:13:14.486Z,97740.81
2023-09-27T20:15:43.419Z,97737.69
2023-09-27T20:18:18.244Z,97736.44
2023-09-27T20:20:47.650Z,97741.41
2023-09-27T20:23:18.514Z,97742.00
2023-09-27T20:25:48.185Z,97743.22
2023-09-27T20:28:19.730Z,97740.09
2023-09-27T20:30:50.408Z,97740.69
2023-09-27T20:33:18.928Z,97737.59
2023-09-27T20:35:47.341Z,97738.00
2023-09-27T20:38:22.058Z,97732.19
2023-09-27T20:40:50.434Z,97732.59
2023-09-27T20:43:27.345Z,97732.97
2023-09-27T20:45:55.818Z,97725.31
2023-09-27T20:48:24.311Z,97729.03
2023-09-27T20:50:57.993Z,97717.84
2023-09-27T20:53:26.790Z,97718.25
2023-09-27T20:55:55.188Z,97712.25
2023-09-27T20:58:24.701Z,97721.34
2023-09-27T21:00:53.783Z,97722.56
2023-09-27T21:03:22.262Z,97718.44
2023-09-27T21:05:50.656Z,97722.53
2023-09-27T21:08:19.334Z,97723.91
2023-09-27T21:10:50.398Z,97727.84
2023-09-27T21:13:19.601Z,97726.34
2023-09-27T21:15:48.128Z,97734.81
2023-09-27T21:18:21.466Z,97738.09
2023-09-27T21:20:49.764Z,97739.69
2023-09-27T21:23:18.099Z,97739.25
2023-09-27T21:25:46.478Z,97747.91
2023-09-27T21:28:16.165Z,97744.78
2023-09-27T21:30:44.587Z,97744.53
2023-09-27T21:33:15.880Z,97744.94
2023-09-27T21:35:44.484Z,97742.63
2023-09-27T21:38:18.744Z,97746.94
2023-09-27T21:40:51.163Z,97744.81
2023-09-27T21:43:21.138Z,97741.06
2023-09-27T21:45:49.535Z,97737.94
2023-09-27T21:48:18.060Z,97738.31
2023-09-27T21:50:47.832Z,97747.78
2023-09-27T21:53:16.284Z,97745.50
2023-09-27T21:55:44.665Z,97746.06
2023-09-27T21:58:18.490Z,97741.28
2023-09-27T22:00:48.440Z,97746.16
2023-09-27T22:03:20.595Z,97743.84
2023-09-27T22:05:52.025Z,97746.31
2023-09-27T22:08:24.065Z,97746.88
2023-09-27T22:10:54.340Z,97742.69
2023-09-27T22:13:23.684Z,97743.06
2023-09-27T22:15:59.603Z,97744.31
2023-09-27T22:18:29.419Z,97748.22
2023-09-27T22:20:57.733Z,97739.25
2023-09-27T22:23:33.590Z,97747.66
2023-09-27T22:26:06.549Z,97746.56
2023-09-27T22:28:36.132Z,97739.09
2023-09-27T22:31:13.785Z,97742.81
2023-09-27T22:33:43.109Z,97743.84
2023-09-27T22:36:12.950Z,97743.38
2023-09-27T22:38:41.717Z,97741.06
2023-09-27T22:41:16.084Z,97746.81
2023-09-27T22:43:45.028Z,97747.19
2023-09-27T22:46:14.787Z,97741.34
2023-09-27T22:48:43.133Z,97745.44
2023-09-27T22:51:20.298Z,97752.84
2023-09-27T22:53:47.754Z,97740.00
2023-09-27T22:56:16.184Z,97743.03
2023-09-27T22:58:45.712Z,97740.75
2023-09-27T23:01:28.984Z,97738.59
2023-09-27T23:03:59.446Z,97734.44
2023-09-27T23:06:33.515Z,97730.47
2023-09-27T23:09:02.100Z,97726.53
2023-09-27T23:11:30.742Z,97737.63
2023-09-27T23:14:06.290Z,97724.78
2023-09-27T23:16:46.189Z,97726.13
2023-09-27T23:19:17.311Z,97728.38
2023-09-27T23:21:46.401Z,97720.91
2023-09-27T23:24:28.757Z,97733.63
2023-09-27T23:27:06.412Z,97720.63
2023-09-27T23:29:37.233Z,97717.66
2023-09-27T23:32:23.550Z,97722.56
2023-09-27T23:34:54.714Z,97722.09
2023-09-27T23:37:32.025Z,97722.28
2023-09-27T23:40:01.190Z,97723.47
2023-09-27T23:42:35.622Z,97714.97
2023-09-27T23:45:10.518Z,97718.84
2023-09-27T23:47:47.487Z,97712.22
2023-09-27T23:50:17.086Z,97724.09
2023-09-27T23:52:47.853Z,97726.34
2023-09-27T23:55:18.239Z,97733.53
2023-09-27T23:57:48.781Z,97738.22
